Time;durP1;ratioP1;P1;durP2;ratioP2;P2;SDS_P1;SDS_P2;PMS_P1;PMS_P2;Temp;Humidity;BMP_temperature;BMP_pressure;BME280_temperature;BME280_humidity;BME280_pressure;Samples;Min_cycle;Max_cycle;Signal;HPM_P1;HPM_P2
2021/12/22 00:00:43;;;;;;;41.47;23.67;;;-0.60;99.90;;;;;;5095232;28;20937;-87
2021/12/22 00:03:09;;;;;;;36.20;26.23;;;-0.70;99.90;;;;;;5095492;28;20917;-83
2021/12/22 00:05:43;;;;;;;41.20;26.47;;;-0.70;99.90;;;;;;5095518;28;20449;-84
2021/12/22 00:08:12;;;;;;;39.93;24.07;;;-0.70;99.90;;;;;;5095641;28;20514;-87
2021/12/22 00:10:43;;;;;;;37.50;22.60;;;-0.70;99.90;;;;;;5095953;28;20495;-87
2021/12/22 00:13:11;;;;;;;34.30;22.03;;;-0.80;99.90;;;;;;5095871;28;20441;-82
2021/12/22 00:15:38;;;;;;;35.27;23.93;;;-0.90;99.90;;;;;;5095204;28;20442;-81
2021/12/22 00:18:07;;;;;;;32.47;23.27;;;-0.90;99.90;;;;;;5095849;28;20441;-86
2021/12/22 00:20:38;;;;;;;38.38;30.33;;;-0.90;99.90;;;;;;5094561;28;20802;-87
2021/12/22 00:23:10;;;;;;;40.53;26.37;;;-0.80;99.90;;;;;;5095248;28;20201;-84
2021/12/22 00:25:37;;;;;;;34.73;24.67;;;-0.90;99.90;;;;;;5095552;28;20434;-87
2021/12/22 00:28:06;;;;;;;35.67;24.03;;;-0.90;99.90;;;;;;5095426;28;20482;-85
2021/12/22 00:30:32;;;;;;;39.57;25.67;;;-0.90;99.90;;;;;;5094918;28;20808;-85
2021/12/22 00:33:04;;;;;;;40.30;24.73;;;-1.00;99.90;;;;;;5095338;28;20434;-82
2021/12/22 00:35:40;;;;;;;44.97;25.43;;;-1.00;99.90;;;;;;5094813;28;20481;-87
2021/12/22 00:38:10;;;;;;;38.77;23.73;;;-1.00;99.90;;;;;;5095277;28;20469;-83
2021/12/22 00:40:46;;;;;;;38.90;24.60;;;-1.00;99.90;;;;;;5095176;28;20441;-82
2021/12/22 00:43:15;;;;;;;38.80;25.30;;;-1.00;99.90;;;;;;5106298;28;20498;-86
2021/12/22 00:45:43;;;;;;;36.20;23.97;;;-1.00;99.90;;;;;;5115501;28;20444;-88
2021/12/22 00:48:12;;;;;;;36.73;23.27;;;-0.90;99.90;;;;;;5115507;28;20479;-83
2021/12/22 00:50:45;;;;;;;41.07;25.63;;;-0.90;99.90;;;;;;5115077;28;20916;-83
2021/12/22 00:53:12;;;;;;;36.70;23.17;;;-1.00;99.90;;;;;;5115298;28;20425;-83
2021/12/22 00:55:40;;;;;;;37.57;25.07;;;-1.10;99.90;;;;;;5114919;28;20428;-86
2021/12/22 00:58:08;;;;;;;43.40;24.07;;;-1.10;99.90;;;;;;5114890;28;20930;-84
2021/12/22 01:00:40;;;;;;;32.27;22.67;;;-1.20;99.90;;;;;;5114535;28;20805;-82
2021/12/22 01:03:06;;;;;;;44.00;25.43;;;-1.20;99.90;;;;;;5114922;28;20429;-85
2021/12/22 01:05:35;;;;;;;42.07;25.13;;;-1.20;99.90;;;;;;5114558;28;20452;-84
2021/12/22 01:08:04;;;;;;;38.43;23.63;;;-1.30;99.90;;;;;;5114547;28;20456;-87
2021/12/22 01:10:33;;;;;;;36.93;24.13;;;-1.30;99.90;;;;;;5114964;27;20779;-82
2021/12/22 01:13:02;;;;;;;35.47;22.53;;;-1.20;99.90;;;;;;5114372;28;20827;-87
2021/12/22 01:15:35;;;;;;;38.20;23.73;;;-1.20;99.90;;;;;;5114604;28;20900;-84
2021/12/22 01:18:14;;;;;;;34.60;24.73;;;-1.20;99.90;;;;;;5114654;28;20425;-83
2021/12/22 01:20:59;;;;;;;39.27;24.93;;;-1.20;99.90;;;;;;5114396;28;20449;-84
2021/12/22 01:23:26;;;;;;;36.97;25.37;;;-1.20;99.90;;;;;;5114957;28;20429;-85
2021/12/22 01:25:55;;;;;;;41.10;25.20;;;-1.10;99.90;;;;;;5114337;28;20917;-83
2021/12/22 01:28:27;;;;;;;36.43;23.90;;;-1.10;99.90;;;;;;5114250;28;20484;-86
2021/12/22 01:31:03;;;;;;;38.33;23.80;;;-1.00;99.90;;;;;;5114269;28;20562;-86
2021/12/22 01:33:33;;;;;;;34.77;23.97;;;-1.10;99.90;;;;;;5113946;28;20490;-86
2021/12/22 01:36:00;;;;;;;38.23;23.87;;;-1.20;99.90;;;;;;5114655;28;20425;-88
2021/12/22 01:38:29;;;;;;;38.77;23.50;;;-1.20;99.90;;;;;;5114035;28;20786;-86
2021/12/22 01:40:57;;;;;;;35.43;23.10;;;-1.20;99.90;;;;;;5114589;28;20429;-83
2021/12/22 01:43:25;;;;;;;38.67;23.57;;;-1.20;99.90;;;;;;5103704;28;20441;-83
2021/12/22 01:46:06;;;;;;;37.73;23.87;;;-1.20;99.90;;;;;;5094168;28;20457;-86
2021/12/22 01:51:35;;;;;;;41.37;24.47;;;-1.20;99.90;;;;;;5093599;28;20444;-85
2021/12/22 01:54:07;;;;;;;38.40;24.23;;;-1.20;99.90;;;;;;5093915;28;20442;-87
2021/12/22 01:56:34;;;;;;;36.30;25.20;;;-1.10;99.90;;;;;;5093617;28;20445;-86
2021/12/22 01:59:09;;;;;;;39.80;24.13;;;-1.20;99.90;;;;;;5093694;28;20437;-86
2021/12/22 02:01:37;;;;;;;45.33;24.67;;;-1.30;99.90;;;;;;5093951;28;20421;-86
2021/12/22 02:04:10;;;;;;;37.40;25.13;;;-1.30;99.90;;;;;;5093336;28;20476;-87
2021/12/22 02:06:40;;;;;;;42.33;24.33;;;-1.30;99.90;;;;;;5093624;28;20517;-81
2021/12/22 02:09:12;;;;;;;36.77;22.20;;;-1.40;99.90;;;;;;5093728;28;20484;-85
2021/12/22 02:11:39;;;;;;;36.90;22.03;;;-1.50;99.90;;;;;;5093448;28;20464;-85
2021/12/22 02:14:07;;;;;;;40.80;22.97;;;-1.30;99.90;;;;;;5093878;28;20527;-87
2021/12/22 02:16:38;;;;;;;36.73;24.43;;;-1.20;99.90;;;;;;5093800;28;20906;-88
2021/12/22 02:19:11;;;;;;;35.13;23.77;;;-1.20;99.90;;;;;;5092843;28;20479;-87
2021/12/22 02:21:46;;;;;;;37.03;23.07;;;-1.20;99.90;;;;;;5093532;28;20434;-85
2021/12/22 02:24:19;;;;;;;35.50;23.10;;;-1.20;99.90;;;;;;5093329;28;20459;-86
2021/12/22 02:26:51;;;;;;;37.20;21.93;;;-1.20;99.90;;;;;;5093779;28;20509;-83
2021/12/22 02:29:22;;;;;;;39.50;24.10;;;-1.30;99.90;;;;;;5094183;28;20488;-88
2021/12/22 02:32:03;;;;;;;38.27;24.33;;;-1.30;99.90;;;;;;5093526;28;20843;-87
2021/12/22 02:34:38;;;;;;;40.10;24.03;;;-1.30;99.90;;;;;;5093715;28;20867;-87
2021/12/22 02:37:11;;;;;;;38.83;24.20;;;-1.30;99.90;;;;;;5094858;28;20578;-84
2021/12/22 02:39:38;;;;;;;44.80;25.40;;;-1.40;99.90;;;;;;5095310;28;20441;-87
2021/12/22 02:42:09;;;;;;;40.37;25.27;;;-1.40;99.90;;;;;;5095678;28;20433;-84
2021/12/22 02:44:36;;;;;;;37.50;24.50;;;-1.50;99.90;;;;;;5110877;28;20498;-85
2021/12/22 02:47:16;;;;;;;42.67;26.17;;;-1.50;99.90;;;;;;5117443;28;20461;-87
2021/12/22 02:49:49;;;;;;;40.37;24.33;;;-1.60;99.90;;;;;;5119696;28;20970;-85
2021/12/22 02:52:20;;;;;;;38.03;24.30;;;-1.50;99.90;;;;;;5120685;28;20449;-83
2021/12/22 02:54:56;;;;;;;37.37;24.00;;;-1.60;99.90;;;;;;5117806;27;20505;-87
2021/12/22 02:57:38;;;;;;;35.40;25.07;;;-1.60;99.90;;;;;;5117453;28;20436;-84
2021/12/22 03:00:29;;;;;;;41.30;25.37;;;-1.60;99.90;;;;;;5117564;28;20965;-86
2021/12/22 03:03:05;;;;;;;44.70;23.93;;;-1.60;99.90;;;;;;5117688;27;20437;-86
2021/12/22 03:05:39;;;;;;;33.50;23.47;;;-1.50;99.90;;;;;;5117159;28;20459;-85
2021/12/22 03:08:13;;;;;;;38.17;23.50;;;-1.50;99.90;;;;;;5116916;28;20489;-87
2021/12/22 03:10:40;;;;;;;37.40;23.10;;;-1.60;99.90;;;;;;5116800;28;20436;-86
2021/12/22 03:13:12;;;;;;;39.60;23.27;;;-1.50;99.90;;;;;;5117464;28;20429;-85
2021/12/22 03:15:39;;;;;;;32.97;23.47;;;-1.50;99.90;;;;;;5116864;28;20437;-86
2021/12/22 03:18:07;;;;;;;34.70;23.53;;;-1.50;99.90;;;;;;5116756;28;20441;-88
2021/12/22 03:20:34;;;;;;;40.67;31.83;;;-1.50;99.90;;;;;;5115372;28;20427;-81
2021/12/22 03:23:01;;;;;;;37.00;25.67;;;-1.40;99.90;;;;;;5116507;28;20213;-84
2021/12/22 03:25:31;;;;;;;39.13;24.47;;;-1.30;99.90;;;;;;5116573;28;20425;-85
2021/12/22 03:28:03;;;;;;;40.60;23.67;;;-1.20;99.90;;;;;;5117065;28;20440;-87
2021/12/22 03:30:31;;;;;;;40.50;23.50;;;-1.20;99.90;;;;;;5116643;28;20437;-76
2021/12/22 03:32:58;;;;;;;32.93;22.03;;;-1.30;99.90;;;;;;5116685;28;20444;-82
2021/12/22 03:35:28;;;;;;;37.23;24.60;;;-1.40;99.90;;;;;;5116633;27;20441;-88
2021/12/22 03:37:59;;;;;;;35.80;22.90;;;-1.50;99.90;;;;;;5119409;27;20927;-83
2021/12/22 03:40:29;;;;;;;34.23;23.67;;;-1.50;99.90;;;;;;5120420;28;20916;-85
2021/12/22 03:43:01;;;;;;;35.30;23.67;;;-1.40;99.90;;;;;;5118733;28;20444;-86
2021/12/22 03:45:28;;;;;;;36.43;25.03;;;-1.40;99.90;;;;;;5098251;28;20445;-85
2021/12/22 03:48:00;;;;;;;38.83;24.40;;;-1.50;99.90;;;;;;5096392;28;20434;-86
2021/12/22 03:50:27;;;;;;;37.53;23.40;;;-1.50;99.90;;;;;;5096386;28;20546;-84
2021/12/22 03:52:54;;;;;;;42.13;25.33;;;-1.50;99.90;;;;;;5095651;28;20452;-87
2021/12/22 03:55:21;;;;;;;37.27;24.40;;;-1.60;99.90;;;;;;5095836;28;20453;-88
2021/12/22 03:57:50;;;;;;;38.57;24.17;;;-1.50;99.90;;;;;;5095258;28;20446;-86
2021/12/22 04:00:21;;;;;;;34.53;22.10;;;-1.50;99.90;;;;;;5096026;28;20434;-86
2021/12/22 04:02:48;;;;;;;38.53;23.87;;;-1.50;99.90;;;;;;5095906;28;20803;-87
2021/12/22 04:05:17;;;;;;;37.97;21.70;;;-1.50;99.90;;;;;;5095460;28;20453;-86
2021/12/22 04:07:44;;;;;;;38.47;23.80;;;-1.60;99.90;;;;;;5099833;28;20457;-87
2021/12/22 04:10:25;;;;;;;33.50;23.10;;;-1.70;99.90;;;;;;5115865;28;20484;-83
2021/12/22 04:12:54;;;;;;;37.07;22.40;;;-1.70;99.90;;;;;;5116105;28;20436;-88
2021/12/22 04:15:25;;;;;;;42.03;23.93;;;-1.70;99.90;;;;;;5116277;28;20437;-83
2021/12/22 04:17:54;;;;;;;40.17;24.00;;;-1.70;99.90;;;;;;5117439;28;20444;-84
2021/12/22 04:20:24;;;;;;;39.87;24.13;;;-1.70;99.90;;;;;;5118159;28;20425;-85
2021/12/22 04:22:51;;;;;;;40.13;22.80;;;-1.80;99.90;;;;;;5118012;28;20457;-83
2021/12/22 04:25:21;;;;;;;34.03;22.23;;;-1.80;99.90;;;;;;5117867;28;20452;-80
2021/12/22 04:27:51;;;;;;;37.60;22.90;;;-1.70;99.90;;;;;;5119748;27;20429;-83
2021/12/22 04:30:18;;;;;;;32.23;21.30;;;-1.90;99.90;;;;;;5119672;28;20479;-80
2021/12/22 04:32:48;;;;;;;38.10;24.03;;;-1.90;99.90;;;;;;5119240;28;20964;-90
2021/12/22 04:35:15;;;;;;;35.23;22.97;;;-1.90;99.90;;;;;;5119835;28;20451;-88
2021/12/22 04:37:43;;;;;;;36.17;21.33;;;-2.00;99.90;;;;;;5119030;28;20908;-88
2021/12/22 04:40:12;;;;;;;34.67;23.50;;;-2.00;99.90;;;;;;5118618;28;20441;-87
2021/12/22 04:42:39;;;;;;;36.57;22.80;;;-2.00;99.90;;;;;;5118567;28;20421;-89
2021/12/22 04:45:08;;;;;;;37.77;22.73;;;-2.10;99.90;;;;;;5117918;27;20441;-87
2021/12/22 04:47:37;;;;;;;35.17;22.90;;;-2.00;99.90;;;;;;5116942;28;20460;-76
2021/12/22 04:50:12;;;;;;;42.87;23.20;;;-2.20;99.90;;;;;;5116961;28;20476;-82
2021/12/22 04:52:48;;;;;;;38.93;23.03;;;-2.20;99.90;;;;;;5116899;28;20505;-85
2021/12/22 04:55:18;;;;;;;34.40;21.80;;;-2.30;99.90;;;;;;5116850;28;20908;-80
2021/12/22 04:57:51;;;;;;;34.73;21.80;;;-2.20;99.90;;;;;;5117629;28;20449;-85
2021/12/22 05:00:21;;;;;;;34.40;23.33;;;-2.20;99.90;;;;;;5116911;27;20446;-89
2021/12/22 05:02:51;;;;;;;35.30;24.10;;;-2.20;99.90;;;;;;5116160;28;20822;-86
2021/12/22 05:05:23;;;;;;;39.97;22.97;;;-2.10;99.90;;;;;;5115812;28;20453;-83
2021/12/22 05:07:56;;;;;;;32.40;22.10;;;-2.00;99.90;;;;;;5114964;28;20797;-86
2021/12/22 05:10:27;;;;;;;34.70;22.53;;;-2.10;99.90;;;;;;5115390;28;20515;-83
2021/12/22 05:12:55;;;;;;;33.27;21.93;;;-2.10;99.90;;;;;;5116280;28;20904;-87
2021/12/22 05:15:36;;;;;;;31.90;22.23;;;-2.10;99.90;;;;;;5115310;28;20816;-87
2021/12/22 05:18:21;;;;;;;36.73;22.83;;;-2.00;99.90;;;;;;5114838;28;20920;-89
2021/12/22 05:20:53;;;;;;;35.70;23.87;;;-1.90;99.90;;;;;;5114920;28;20441;-80
2021/12/22 05:23:26;;;;;;;34.83;22.43;;;-1.90;99.90;;;;;;5115071;28;20437;-75
2021/12/22 05:25:53;;;;;;;34.67;23.40;;;-2.00;99.90;;;;;;5115153;28;20444;-87
2021/12/22 05:28:20;;;;;;;40.43;22.73;;;-2.00;99.90;;;;;;5115853;28;20441;-85
2021/12/22 05:30:48;;;;;;;35.23;22.30;;;-2.30;99.90;;;;;;5115126;28;20846;-90
2021/12/22 05:33:16;;;;;;;37.57;22.33;;;-2.40;99.90;;;;;;5115463;28;20459;-87
2021/12/22 05:35:48;;;;;;;40.10;23.43;;;-2.40;99.90;;;;;;5114583;28;20453;-89
2021/12/22 05:38:17;;;;;;;34.53;21.83;;;-2.30;99.90;;;;;;5114217;28;20433;-85
2021/12/22 05:40:47;;;;;;;35.87;22.50;;;-2.30;99.90;;;;;;5114790;28;20486;-84
2021/12/22 05:43:13;;;;;;;35.10;22.90;;;-2.40;99.90;;;;;;5115093;28;20440;-85
2021/12/22 05:45:41;;;;;;;42.57;23.13;;;-2.30;99.90;;;;;;5114623;28;20455;-92
2021/12/22 05:48:11;;;;;;;35.97;21.90;;;-2.30;99.90;;;;;;5115180;28;20494;-90
2021/12/22 05:50:47;;;;;;;33.60;20.90;;;-2.20;99.90;;;;;;5114895;28;20472;-90
2021/12/22 05:53:18;;;;;;;35.70;21.03;;;-2.20;99.90;;;;;;5115016;28;20512;-92
2021/12/22 05:55:46;;;;;;;35.47;22.13;;;-2.20;99.90;;;;;;5115013;28;20433;-90
2021/12/22 05:58:12;;;;;;;37.50;23.00;;;-2.10;99.90;;;;;;5114974;28;20321;-90
2021/12/22 06:00:40;;;;;;;35.47;21.87;;;-2.10;99.90;;;;;;5112882;28;20664;-93
2021/12/22 06:03:12;;;;;;;33.73;23.07;;;-2.00;99.90;;;;;;5094096;28;20917;-88
2021/12/22 06:05:41;;;;;;;40.87;23.57;;;-2.00;99.90;;;;;;5094346;28;20460;-90
2021/12/22 06:08:08;;;;;;;41.87;24.27;;;-2.00;99.90;;;;;;5102816;28;20473;-88
2021/12/22 06:10:39;;;;;;;34.33;23.57;;;-2.10;99.90;;;;;;5114817;28;20476;-90
2021/12/22 06:13:12;;;;;;;35.97;23.43;;;-2.00;99.90;;;;;;5114754;28;20437;-91
2021/12/22 06:15:40;;;;;;;37.60;23.40;;;-1.80;99.90;;;;;;5115081;28;20932;-90
2021/12/22 06:18:13;;;;;;;33.67;21.20;;;-1.90;99.90;;;;;;5114753;28;20512;-92
2021/12/22 06:20:41;;;;;;;35.07;21.77;;;-2.00;99.90;;;;;;5116983;28;20635;-91
2021/12/22 06:23:14;;;;;;;33.97;22.43;;;-1.90;99.90;;;;;;5119251;28;20519;-91
2021/12/22 06:25:43;;;;;;;39.80;22.87;;;-1.90;99.90;;;;;;5119250;28;20424;-91
2021/12/22 06:28:10;;;;;;;32.50;22.53;;;-1.80;99.90;;;;;;5118587;28;20970;-87
2021/12/22 06:30:40;;;;;;;34.07;22.97;;;-1.80;99.90;;;;;;5118854;28;20483;-89
2021/12/22 06:33:08;;;;;;;40.22;30.48;;;-1.90;99.90;;;;;;5118095;28;20433;-92
2021/12/22 06:35:37;;;;;;;40.10;24.53;;;-1.70;99.90;;;;;;5118717;28;20208;-92
2021/12/22 06:38:08;;;;;;;42.73;24.00;;;-1.70;99.90;;;;;;5119036;27;20455;-93
2021/12/22 06:40:37;;;;;;;36.90;22.17;;;-1.80;99.90;;;;;;5119410;27;20455;-89
2021/12/22 06:43:11;;;;;;;34.83;21.70;;;-1.90;99.90;;;;;;5119088;28;20499;-92
2021/12/22 06:45:39;;;;;;;32.20;22.53;;;-2.10;99.90;;;;;;5118393;28;20480;-93
2021/12/22 06:48:09;;;;;;;35.70;21.70;;;-2.30;99.90;;;;;;5117988;28;20437;-93
2021/12/22 06:50:42;;;;;;;34.67;22.87;;;-2.30;99.90;;;;;;5118486;28;20472;-92
2021/12/22 06:53:14;;;;;;;28.97;20.77;;;-2.20;99.90;;;;;;5118874;28;20440;-86
2021/12/22 06:55:42;;;;;;;30.47;19.93;;;-2.10;99.90;;;;;;5118075;28;20447;-90
2021/12/22 06:58:13;;;;;;;33.90;20.87;;;-2.10;99.90;;;;;;5118004;28;20815;-93
2021/12/22 07:00:50;;;;;;;34.43;21.90;;;-2.30;99.90;;;;;;5118547;28;20431;-93
2021/12/22 07:03:19;;;;;;;30.83;20.33;;;-2.40;99.90;;;;;;5117526;27;20440;-90
2021/12/22 07:05:49;;;;;;;36.55;27.60;;;-2.30;99.90;;;;;;5116765;28;20515;-92
2021/12/22 07:08:22;;;;;;;40.43;22.67;;;-2.20;99.90;;;;;;5112293;28;20219;-92
2021/12/22 07:11:04;;;;;;;34.23;21.77;;;-2.10;99.90;;;;;;5101431;28;20485;-92
2021/12/22 07:13:38;;;;;;;33.33;20.30;;;-2.00;99.90;;;;;;5097412;28;20936;-91
2021/12/22 07:16:08;;;;;;;33.37;19.70;;;-2.00;99.90;;;;;;5097226;28;20429;-90
2021/12/22 07:18:38;;;;;;;32.97;20.30;;;-1.90;99.90;;;;;;5102114;28;20453;-92
2021/12/22 07:21:11;;;;;;;35.23;20.40;;;-1.90;99.90;;;;;;5097605;28;20445;-90
2021/12/22 07:23:41;;;;;;;32.97;19.73;;;-1.90;99.90;;;;;;5097699;28;20503;-92
2021/12/22 07:26:13;;;;;;;27.23;18.47;;;-2.00;99.90;;;;;;5097188;28;20452;-91
2021/12/22 07:28:45;;;;;;;30.30;18.47;;;-2.20;99.90;;;;;;5097419;28;20438;-90
2021/12/22 07:31:12;;;;;;;33.43;19.37;;;-2.40;99.90;;;;;;5096559;28;20489;-91
2021/12/22 07:33:39;;;;;;;31.87;18.27;;;-2.40;99.90;;;;;;5096964;28;20448;-91
2021/12/22 07:36:09;;;;;;;25.40;18.53;;;-2.40;99.90;;;;;;5096789;28;20437;-91
2021/12/22 07:39:09;;;;;;;29.87;19.57;;;-2.30;99.90;;;;;;5097272;28;20444;-91
2021/12/22 07:41:42;;;;;;;31.77;19.13;;;-2.20;99.90;;;;;;5097254;28;20469;-91
2021/12/22 07:44:12;;;;;;;34.00;18.83;;;-2.10;99.90;;;;;;5097335;28;20441;-90
2021/12/22 07:46:50;;;;;;;28.30;18.17;;;-2.20;99.90;;;;;;5097551;28;20478;-91
2021/12/22 07:49:18;;;;;;;30.60;20.07;;;-2.40;99.90;;;;;;5096873;28;20437;-91
2021/12/22 07:51:51;;;;;;;34.40;20.03;;;-2.30;99.90;;;;;;5097175;28;20976;-93
2021/12/22 07:54:20;;;;;;;37.63;20.93;;;-2.20;99.90;;;;;;5097061;28;20808;-89
2021/12/22 07:56:53;;;;;;;31.63;20.43;;;-2.10;99.90;;;;;;5096670;28;20453;-87
2021/12/22 07:59:21;;;;;;;32.87;20.20;;;-2.00;99.90;;;;;;5096317;28;20458;-88
2021/12/22 08:01:48;;;;;;;34.43;19.90;;;-1.90;99.90;;;;;;5097032;28;20932;-90
2021/12/22 08:04:15;;;;;;;35.87;19.20;;;-1.90;99.90;;;;;;5096695;28;20457;-89
2021/12/22 08:06:42;;;;;;;26.13;18.27;;;-2.00;99.90;;;;;;5096332;28;20442;-89
2021/12/22 08:09:15;;;;;;;28.53;19.30;;;-1.90;99.90;;;;;;5096992;28;20491;-91
2021/12/22 08:11:48;;;;;;;34.63;24.58;;;-1.90;99.90;;;;;;5095817;28;20793;-89
2021/12/22 08:14:15;;;;;;;32.30;21.23;;;-1.80;99.90;;;;;;5096025;28;20213;-89
2021/12/22 08:16:49;;;;;;;33.97;19.50;;;-1.80;99.90;;;;;;5096315;28;20540;-90
2021/12/22 08:19:22;;;;;;;25.43;18.87;;;-2.00;99.90;;;;;;5096066;28;20452;-89
2021/12/22 08:21:55;;;;;;;31.20;19.40;;;-1.90;99.90;;;;;;5095877;28;20438;-93
2021/12/22 08:24:24;;;;;;;32.00;19.73;;;-1.80;99.90;;;;;;5096463;28;20437;-90
2021/12/22 08:26:52;;;;;;;28.23;19.13;;;-1.70;99.90;;;;;;5096083;28;20441;-91
2021/12/22 08:29:25;;;;;;;33.90;18.97;;;-1.60;99.90;;;;;;5095671;28;20430;-90
2021/12/22 08:31:56;;;;;;;30.47;17.23;;;-1.50;99.90;;;;;;5095245;28;20481;-88
2021/12/22 08:34:38;;;;;;;29.67;18.10;;;-1.40;99.90;;;;;;5095494;28;20442;-89
2021/12/22 08:39:50;;;;;;;26.13;17.80;;;-1.40;99.90;;;;;;5095694;28;20420;-86
2021/12/22 08:42:23;;;;;;;27.53;18.40;;;-1.40;99.90;;;;;;5095555;28;20422;-90
2021/12/22 08:44:53;;;;;;;30.30;20.27;;;-1.30;99.90;;;;;;5093714;28;20439;-88
2021/12/22 08:47:26;;;;;;;30.03;19.13;;;-1.30;99.90;;;;;;5095493;28;20221;-91
2021/12/22 08:49:56;;;;;;;27.80;17.90;;;-1.20;99.90;;;;;;5095359;28;20452;-88
2021/12/22 08:52:23;;;;;;;31.77;17.83;;;-1.10;99.90;;;;;;5095585;28;20430;-87
2021/12/22 08:54:59;;;;;;;31.00;18.40;;;-1.10;99.90;;;;;;5095254;28;20442;-89
2021/12/22 08:57:29;;;;;;;31.10;18.53;;;-1.20;99.90;;;;;;5095469;28;20456;-90
2021/12/22 08:59:56;;;;;;;35.60;18.27;;;-1.10;99.90;;;;;;5095673;28;20445;-87
2021/12/22 09:02:25;;;;;;;29.70;18.03;;;-1.10;99.90;;;;;;5095241;28;20430;-90
2021/12/22 09:04:53;;;;;;;29.80;17.77;;;-1.20;99.90;;;;;;5094933;28;20450;-91
2021/12/22 09:07:20;;;;;;;32.43;17.50;;;-1.20;99.90;;;;;;5095362;28;20441;-89
2021/12/22 09:09:53;;;;;;;30.40;17.97;;;-1.20;99.90;;;;;;5094951;28;20460;-89
2021/12/22 09:12:23;;;;;;;30.13;17.93;;;-1.20;99.90;;;;;;5093837;28;20468;-90
2021/12/22 09:14:56;;;;;;;29.30;16.40;;;-1.10;99.90;;;;;;5095090;28;20453;-88
2021/12/22 09:17:27;;;;;;;24.93;16.37;;;-0.90;99.90;;;;;;5094833;28;20464;-91
2021/12/22 09:19:57;;;;;;;21.03;15.00;;;-0.90;99.90;;;;;;5094985;28;20434;-87
2021/12/22 09:22:30;;;;;;;27.00;15.60;;;-0.70;99.90;;;;;;5094703;28;20438;-90
2021/12/22 09:25:04;;;;;;;26.73;15.67;;;-0.70;99.90;;;;;;5094390;28;20452;-89
2021/12/22 09:27:37;;;;;;;23.47;14.57;;;-0.60;99.90;;;;;;5094911;28;20453;-88
2021/12/22 09:30:12;;;;;;;23.83;15.67;;;-0.50;99.90;;;;;;5094815;28;20862;-90
2021/12/22 09:32:44;;;;;;;22.97;14.43;;;-0.50;99.90;;;;;;5094723;28;20441;-92
2021/12/22 09:35:33;;;;;;;22.63;13.87;;;-0.40;99.90;;;;;;5095076;28;20454;-90
2021/12/22 09:38:01;;;;;;;22.33;14.23;;;-0.30;99.90;;;;;;5094544;28;20450;-91
2021/12/22 09:40:34;;;;;;;21.63;12.73;;;-0.20;99.90;;;;;;5094687;28;20420;-89
2021/12/22 09:43:00;;;;;;;26.53;13.63;;;-0.10;99.90;;;;;;5094711;28;20907;-85
2021/12/22 09:45:37;;;;;;;24.53;13.47;;;0.20;99.90;;;;;;5094411;28;20457;-91
2021/12/22 09:48:27;;;;;;;20.87;12.70;;;0.30;99.90;;;;;;5094938;28;20485;-90
2021/12/22 09:53:46;;;;;;;19.43;12.23;;;0.40;99.90;;;;;;5094676;28;20514;-90
2021/12/22 09:56:15;;;;;;;23.17;13.40;;;0.40;99.90;;;;;;5094096;28;20453;-90
2021/12/22 09:58:45;;;;;;;17.93;12.10;;;0.50;99.90;;;;;;5094488;28;20437;-90
2021/12/22 10:01:25;;;;;;;18.33;12.10;;;0.60;99.90;;;;;;5094481;28;20441;-92
2021/12/22 10:03:54;;;;;;;17.63;12.37;;;0.70;99.90;;;;;;5102622;28;20919;-91
2021/12/22 10:06:22;;;;;;;21.60;12.03;;;0.80;99.90;;;;;;5104847;28;20529;-88
2021/12/22 10:08:53;;;;;;;18.57;12.07;;;0.90;99.90;;;;;;5104656;28;20537;-88
2021/12/22 10:11:21;;;;;;;19.20;11.67;;;1.10;99.90;;;;;;5102122;28;20462;-91
2021/12/22 10:13:51;;;;;;;16.87;11.70;;;1.10;99.90;;;;;;5111870;28;20806;-92
2021/12/22 10:16:26;;;;;;;18.57;11.17;;;1.20;99.90;;;;;;5096874;28;20446;-92
2021/12/22 10:19:06;;;;;;;16.43;11.30;;;1.30;99.90;;;;;;5095062;28;21014;-93
2021/12/22 10:21:37;;;;;;;16.17;10.47;;;1.40;99.90;;;;;;5094807;28;20532;-90
2021/12/22 10:24:09;;;;;;;13.53;11.33;;;1.50;99.90;;;;;;5095271;28;20434;-90
2021/12/22 10:26:42;;;;;;;14.18;10.45;;;1.60;99.90;;;;;;5114862;28;20425;-91
2021/12/22 10:29:15;;;;;;;15.07;11.40;;;1.60;99.90;;;;;;5115286;28;20193;-91
2021/12/22 10:31:46;;;;;;;16.77;10.83;;;1.60;99.90;;;;;;5115153;28;20567;-91
2021/12/22 10:34:19;;;;;;;19.03;10.27;;;1.70;99.90;;;;;;5115582;28;20521;-92
2021/12/22 10:36:49;;;;;;;14.97;10.73;;;1.60;99.90;;;;;;5115467;28;20449;-92
2021/12/22 10:39:22;;;;;;;19.90;11.43;;;1.60;99.90;;;;;;5115310;28;20455;-90
2021/12/22 10:41:50;;;;;;;18.50;11.37;;;1.60;99.90;;;;;;5115497;28;20464;-92
2021/12/22 10:44:20;;;;;;;15.73;9.93;;;1.80;99.90;;;;;;5114907;28;20429;-91
2021/12/22 10:46:49;;;;;;;14.77;9.60;;;1.70;99.90;;;;;;5116000;28;20473;-90
2021/12/22 10:49:22;;;;;;;18.57;10.93;;;1.80;99.90;;;;;;5115215;28;20951;-92
2021/12/22 10:51:57;;;;;;;13.93;10.17;;;1.60;99.90;;;;;;5114144;28;20534;-91
2021/12/22 10:54:34;;;;;;;15.00;10.13;;;1.70;99.90;;;;;;5114500;28;20448;-92
2021/12/22 10:57:02;;;;;;;18.07;10.67;;;1.90;99.90;;;;;;5114637;28;20504;-91
2021/12/22 10:59:42;;;;;;;12.43;9.93;;;2.00;99.90;;;;;;5114711;28;20446;-90
2021/12/22 11:02:11;;;;;;;17.08;12.52;;;2.10;99.90;;;;;;5113835;28;20455;-91
2021/12/22 11:04:44;;;;;;;16.57;10.30;;;2.30;99.90;;;;;;5114218;27;20212;-91
2021/12/22 11:07:22;;;;;;;16.63;11.07;;;2.40;99.90;;;;;;5114598;28;20448;-83
2021/12/22 11:09:50;;;;;;;17.97;10.13;;;2.40;99.90;;;;;;5119158;28;20440;-85
2021/12/22 11:12:17;;;;;;;15.47;9.93;;;2.20;99.90;;;;;;5121053;28;20478;-88
2021/12/22 11:14:47;;;;;;;18.67;11.23;;;2.20;99.90;;;;;;5131236;28;20487;-83
2021/12/22 11:17:17;;;;;;;15.73;10.30;;;2.30;99.90;;;;;;5127528;28;20441;-86
2021/12/22 11:20:01;;;;;;;16.17;10.07;;;2.30;99.90;;;;;;5130998;28;20456;-82
2021/12/22 11:22:40;;;;;;;14.23;9.97;;;2.50;99.90;;;;;;5120260;28;20874;-85
2021/12/22 11:25:13;;;;;;;18.70;10.40;;;2.50;99.90;;;;;;5116723;28;20433;-86
2021/12/22 11:27:43;;;;;;;12.23;9.93;;;2.60;99.90;;;;;;5109111;28;20434;-90
2021/12/22 11:30:13;;;;;;;18.13;10.17;;;2.60;99.90;;;;;;5107503;28;20450;-91
2021/12/22 11:32:41;;;;;;;18.37;10.33;;;2.70;99.90;;;;;;5106314;28;20489;-88
2021/12/22 11:35:15;;;;;;;14.87;9.93;;;2.70;99.90;;;;;;5107044;28;20455;-89
2021/12/22 11:37:44;;;;;;;13.97;9.83;;;2.70;99.90;;;;;;5105185;28;20434;-91
2021/12/22 11:40:13;;;;;;;12.80;9.60;;;2.70;99.90;;;;;;5105013;28;20445;-89
2021/12/22 11:42:42;;;;;;;17.50;9.67;;;2.70;99.90;;;;;;5113800;28;20472;-89
2021/12/22 11:45:13;;;;;;;15.67;10.37;;;2.80;99.90;;;;;;5111452;28;20454;-89
2021/12/22 11:47:43;;;;;;;17.73;9.63;;;2.90;99.90;;;;;;5118692;28;20441;-91
2021/12/22 11:50:18;;;;;;;12.23;9.43;;;3.00;99.90;;;;;;5113532;28;20456;-89
2021/12/22 11:52:55;;;;;;;14.93;10.17;;;3.10;99.90;;;;;;5095452;28;20914;-88
2021/12/22 11:55:26;;;;;;;17.17;9.50;;;3.20;99.90;;;;;;5106390;28;20490;-87
2021/12/22 11:57:55;;;;;;;12.67;9.30;;;3.30;99.90;;;;;;5116616;28;20445;-88
2021/12/22 12:00:28;;;;;;;14.20;9.90;;;3.40;99.90;;;;;;5116526;28;20535;-88
2021/12/22 12:02:57;;;;;;;13.10;9.67;;;3.30;99.90;;;;;;5116676;28;20520;-88
2021/12/22 12:05:26;;;;;;;16.87;10.10;;;3.30;99.90;;;;;;5115550;28;20523;-87
2021/12/22 12:07:55;;;;;;;13.63;10.07;;;3.30;99.90;;;;;;5116555;28;20432;-88
2021/12/22 12:10:40;;;;;;;14.13;9.37;;;3.30;99.90;;;;;;5116431;28;20827;-88
2021/12/22 12:13:36;;;;;;;14.18;11.68;;;3.40;99.90;;;;;;5107153;27;20561;-84
2021/12/22 12:22:36;;;;;;;14.17;9.30;;;3.60;99.90;;;;;;5115714;28;20439;-87
2021/12/22 12:25:10;;;;;;;11.77;7.57;;;3.70;99.90;;;;;;5113248;28;20457;-89
2021/12/22 12:27:48;;;;;;;14.47;7.93;;;3.50;99.90;;;;;;5118300;28;20444;-88
2021/12/22 12:30:25;;;;;;;14.67;8.30;;;3.50;99.90;;;;;;5118268;28;20548;-89
2021/12/22 12:33:11;;;;;;;13.67;9.17;;;3.40;99.90;;;;;;5116881;28;20493;-87
2021/12/22 12:35:53;;;;;;;12.00;8.40;;;3.30;99.90;;;;;;5116055;28;20440;-89
2021/12/22 12:38:25;;;;;;;11.33;8.57;;;3.40;99.90;;;;;;5116049;28;20445;-87
2021/12/22 12:41:28;;;;;;;12.60;9.03;;;3.40;99.90;;;;;;5110992;28;20450;-89
2021/12/22 12:44:18;;;;;;;11.87;8.77;;;3.60;99.90;;;;;;5103991;28;20480;-88
2021/12/22 12:46:59;;;;;;;12.63;10.00;;;3.50;99.90;;;;;;5109265;28;20434;-90
2021/12/22 12:49:45;;;;;;;10.90;8.70;;;3.60;99.90;;;;;;5110375;28;20205;-88
2021/12/22 12:52:24;;;;;;;11.27;8.43;;;3.70;99.90;;;;;;5113483;28;20473;-89
2021/12/22 12:55:13;;;;;;;13.30;8.50;;;3.60;99.90;;;;;;5112128;28;20520;-89
2021/12/22 12:57:40;;;;;;;15.17;9.53;;;3.60;99.90;;;;;;5111198;28;20442;-89
2021/12/22 13:00:21;;;;;;;12.97;9.13;;;3.60;99.90;;;;;;5110986;28;20450;-93
2021/12/22 13:03:09;;;;;;;17.33;8.93;;;3.50;99.90;;;;;;5108221;28;20929;-87
2021/12/22 13:05:40;;;;;;;10.80;8.70;;;3.60;99.90;;;;;;5106729;28;20449;-88
2021/12/22 13:08:12;;;;;;;14.03;9.17;;;3.60;99.90;;;;;;5105711;28;20445;-89